createdAt,value
2023-04-17T00:01:32.507Z,27.48
2023-04-17T00:03:59.379Z,27.20
2023-04-17T00:06:27.349Z,27.13
2023-04-17T00:08:54.260Z,26.38
2023-04-17T00:11:21.566Z,25.75
2023-04-17T00:13:48.290Z,26.27
2023-04-17T00:16:15.052Z,27.73
2023-04-17T00:18:41.810Z,28.58
2023-04-17T00:21:08.508Z,22.63
2023-04-17T00:23:35.254Z,25.23
2023-04-17T00:26:01.906Z,22.40
2023-04-17T00:28:28.586Z,26.80
2023-04-17T00:30:55.368Z,23.88
2023-04-17T00:33:22.055Z,24.35
2023-04-17T00:35:49.159Z,25.17
2023-04-17T00:38:15.972Z,25.55
2023-04-17T00:40:43.017Z,24.75
2023-04-17T00:43:09.747Z,28.17
2023-04-17T00:45:36.583Z,24.35
2023-04-17T00:48:05.013Z,26.83
2023-04-17T00:50:31.886Z,24.30
2023-04-17T00:52:59.823Z,27.92
2023-04-17T00:55:27.856Z,23.33
2023-04-17T00:57:55.766Z,29.33
2023-04-17T01:00:22.591Z,26.58
2023-04-17T01:02:49.437Z,24.17
2023-04-17T01:05:16.195Z,24.80
2023-04-17T01:07:43.201Z,25.75
2023-04-17T01:10:10.198Z,26.77
2023-04-17T01:12:37.020Z,31.10
2023-04-17T01:15:04.309Z,22.90
2023-04-17T01:17:31.411Z,28.67
2023-04-17T01:19:58.518Z,23.33
2023-04-17T01:22:25.549Z,26.15
2023-04-17T01:24:56.609Z,27.17
2023-04-17T01:27:25.797Z,25.98
2023-04-17T01:29:52.518Z,25.92
2023-04-17T01:32:20.049Z,20.23
2023-04-17T01:34:47.023Z,23.17
2023-04-17T01:37:13.704Z,23.10
2023-04-17T01:39:40.948Z,21.63
2023-04-17T01:42:07.746Z,24.40
2023-04-17T01:44:34.803Z,27.23
2023-04-17T01:47:01.477Z,30.17
2023-04-17T01:49:28.816Z,28.20
2023-04-17T01:51:55.625Z,25.67
2023-04-17T01:54:22.642Z,26.08
2023-04-17T01:56:49.418Z,31.55
2023-04-17T01:59:16.275Z,25.60
2023-04-17T02:01:43.177Z,23.38
2023-04-17T02:04:09.956Z,24.75
2023-04-17T02:06:36.752Z,28.15
2023-04-17T02:09:04.179Z,28.77
2023-04-17T02:11:31.583Z,23.70
2023-04-17T02:13:58.317Z,24.77
2023-04-17T02:16:25.065Z,24.00
2023-04-17T02:18:52.517Z,24.80
2023-04-17T02:21:19.787Z,25.05
2023-04-17T02:23:46.521Z,28.98
2023-04-17T02:26:13.321Z,27.67
2023-04-17T02:28:40.088Z,30.85
2023-04-17T02:31:08.771Z,26.25
2023-04-17T02:33:38.969Z,27.65
2023-04-17T02:36:06.558Z,26.23
2023-04-17T02:38:38.437Z,28.80
2023-04-17T02:41:06.442Z,27.00
2023-04-17T02:43:33.904Z,27.85
2023-04-17T02:46:01.588Z,26.02
2023-04-17T02:48:28.378Z,29.33
2023-04-17T02:50:55.434Z,27.92
2023-04-17T02:53:22.410Z,26.75
2023-04-17T02:55:49.888Z,25.50
2023-04-17T02:58:19.312Z,28.35
2023-04-17T03:00:46.263Z,27.15
2023-04-17T03:03:16.497Z,26.23
2023-04-17T03:05:43.468Z,30.88
2023-04-17T03:08:10.776Z,25.05
2023-04-17T03:10:44.347Z,24.02
2023-04-17T03:13:11.331Z,29.35
2023-04-17T03:15:38.022Z,25.63
2023-04-17T03:18:05.056Z,26.85
2023-04-17T03:20:32.169Z,27.48
2023-04-17T03:22:59.014Z,28.30
2023-04-17T03:25:25.986Z,29.52
2023-04-17T03:27:53.159Z,29.55
2023-04-17T03:30:23.419Z,24.90
2023-04-17T03:32:51.989Z,24.83
2023-04-17T03:35:18.830Z,27.45
2023-04-17T03:37:45.662Z,27.90
2023-04-17T03:40:13.394Z,32.80
2023-04-17T03:42:40.278Z,29.88
2023-04-17T03:45:07.688Z,31.10
2023-04-17T03:47:34.427Z,34.58
2023-04-17T03:50:01.281Z,32.42
2023-04-17T03:52:33.056Z,31.35
2023-04-17T03:55:00.014Z,31.73
2023-04-17T03:57:27.424Z,28.52
2023-04-17T03:59:54.313Z,30.10
2023-04-17T04:02:21.327Z,31.05
2023-04-17T04:04:50.819Z,29.00
2023-04-17T04:07:17.681Z,33.95
2023-04-17T04:09:45.002Z,28.98
2023-04-17T04:12:11.813Z,33.97
2023-04-17T04:14:42.123Z,29.85
2023-04-17T04:17:09.898Z,31.60
2023-04-17T04:19:37.961Z,31.35
2023-04-17T04:22:06.650Z,37.40
2023-04-17T04:24:40.727Z,30.60
2023-04-17T04:27:07.741Z,32.25
2023-04-17T04:29:37.818Z,27.80
2023-04-17T04:32:09.798Z,35.38
2023-04-17T04:34:42.226Z,32.65
2023-04-17T04:37:08.963Z,32.15
2023-04-17T04:39:39.367Z,33.10
2023-04-17T04:42:10.112Z,35.35
2023-04-17T04:44:58.921Z,30.10
2023-04-17T04:47:28.857Z,31.45
2023-04-17T04:49:56.025Z,33.40
2023-04-17T04:52:23.277Z,32.45
2023-04-17T04:57:20.465Z,38.55
2023-04-17T04:59:49.255Z,35.05
2023-04-17T05:02:30.306Z,31.90
2023-04-17T05:04:57.660Z,35.25
2023-04-17T05:07:24.843Z,33.45
2023-04-17T05:09:51.971Z,34.83
2023-04-17T05:12:18.853Z,36.35
2023-04-17T05:14:45.686Z,34.17
2023-04-17T05:17:13.384Z,35.47
2023-04-17T05:19:40.065Z,34.58
2023-04-17T05:22:09.258Z,34.17
2023-04-17T05:24:45.199Z,33.63
2023-04-17T05:27:11.920Z,33.17
2023-04-17T05:29:38.783Z,31.90
2023-04-17T05:32:05.977Z,34.25
2023-04-17T05:34:58.805Z,35.08
2023-04-17T05:37:27.653Z,31.95
2023-04-17T05:39:55.875Z,38.45
2023-04-17T05:42:22.566Z,30.38
2023-04-17T05:44:49.373Z,36.03
2023-04-17T05:47:16.200Z,32.30
2023-04-17T05:49:44.157Z,34.60
2023-04-17T05:52:11.048Z,32.67
2023-04-17T05:54:42.414Z,29.58
2023-04-17T05:57:09.129Z,32.28
2023-04-17T05:59:36.639Z,32.00
2023-04-17T06:02:04.442Z,33.45
2023-04-17T06:04:33.683Z,32.40
2023-04-17T06:07:03.006Z,33.88
2023-04-17T06:09:30.642Z,34.67
2023-04-17T06:11:57.454Z,33.15
2023-04-17T06:14:24.283Z,29.70
2023-04-17T06:16:51.291Z,32.78
2023-04-17T06:19:18.067Z,31.23
2023-04-17T06:21:45.451Z,33.15
2023-04-17T06:24:12.217Z,30.08
2023-04-17T06:26:44.886Z,29.70
2023-04-17T06:29:12.873Z,29.50
2023-04-17T06:31:40.575Z,29.58
2023-04-17T06:34:07.759Z,31.48
2023-04-17T06:36:39.398Z,28.92
2023-04-17T06:39:07.006Z,32.25
2023-04-17T06:41:33.963Z,31.40
2023-04-17T06:44:01.149Z,30.50
2023-04-17T06:46:43.384Z,30.85
2023-04-17T06:49:10.301Z,31.88
2023-04-17T06:51:37.277Z,33.33
2023-04-17T06:54:04.046Z,29.73
2023-04-17T06:56:31.031Z,30.85
2023-04-17T06:58:58.038Z,28.98
2023-04-17T07:01:24.744Z,28.90
2023-04-17T07:03:51.628Z,28.20
2023-04-17T07:06:19.641Z,25.98
2023-04-17T07:08:46.344Z,29.92
2023-04-17T07:11:13.009Z,31.00
2023-04-17T07:13:39.824Z,29.65
2023-04-17T07:16:06.952Z,28.63
2023-04-17T07:18:33.768Z,28.63
2023-04-17T07:21:00.992Z,27.27
2023-04-17T07:23:27.696Z,31.70
2023-04-17T07:25:54.745Z,29.38
2023-04-17T07:28:21.683Z,33.00
2023-04-17T07:30:48.451Z,28.27
2023-04-17T07:33:15.198Z,28.20
2023-04-17T07:35:43.192Z,27.75
2023-04-17T07:38:10.051Z,28.80
2023-04-17T07:40:36.934Z,25.30
2023-04-17T07:43:03.889Z,29.45
2023-04-17T07:45:31.152Z,26.85
2023-04-17T07:47:57.929Z,27.20
2023-04-17T07:50:25.057Z,27.00
2023-04-17T07:52:51.829Z,26.40
2023-04-17T07:55:18.539Z,29.38
2023-04-17T07:57:46.695Z,24.52
2023-04-17T08:00:14.910Z,24.35
2023-04-17T08:02:42.873Z,25.15
2023-04-17T08:05:10.252Z,23.23
2023-04-17T08:07:37.633Z,22.27
2023-04-17T08:10:05.369Z,26.65
2023-04-17T08:12:32.318Z,25.80
2023-04-17T08:14:59.058Z,28.38
2023-04-17T08:17:26.496Z,25.15
2023-04-17T08:19:59.143Z,25.77
2023-04-17T08:22:26.233Z,29.85
2023-04-17T08:24:58.064Z,26.67
2023-04-17T08:27:25.994Z,23.73
2023-04-17T08:29:53.810Z,21.25
2023-04-17T08:32:21.584Z,16.27
2023-04-17T08:34:48.370Z,16.50
2023-04-17T08:37:15.068Z,16.02
2023-04-17T08:39:41.747Z,14.48
2023-04-17T08:42:13.323Z,14.52
2023-04-17T08:44:43.496Z,15.93
2023-04-17T08:47:10.349Z,16.98
2023-04-17T08:49:37.517Z,14.48
2023-04-17T08:52:05.426Z,14.85
2023-04-17T08:54:35.273Z,12.27
2023-04-17T08:57:06.008Z,13.23
2023-04-17T08:59:33.369Z,11.85
2023-04-17T09:02:07.925Z,14.77
2023-04-17T09:04:43.085Z,14.20
2023-04-17T09:07:11.845Z,16.25
2023-04-17T09:09:48.291Z,15.27
2023-04-17T09:12:15.062Z,12.73
2023-04-17T09:14:41.785Z,17.33
2023-04-17T09:17:08.564Z,13.60
2023-04-17T09:19:35.382Z,18.42
2023-04-17T09:22:18.700Z,13.35
2023-04-17T09:24:45.653Z,11.77
2023-04-17T09:27:26.901Z,11.68
2023-04-17T09:30:04.993Z,13.10
2023-04-17T09:32:33.411Z,14.15
2023-04-17T09:35:02.674Z,12.60
2023-04-17T09:37:51.533Z,13.10
2023-04-17T09:40:19.264Z,13.48
2023-04-17T09:43:04.054Z,10.98
2023-04-17T09:45:37.138Z,12.98
2023-04-17T09:48:07.143Z,10.68
2023-04-17T09:50:35.859Z,11.68
2023-04-17T09:53:05.259Z,12.63
2023-04-17T09:55:32.799Z,12.10
2023-04-17T09:58:02.212Z,14.18
2023-04-17T10:00:29.678Z,16.02
2023-04-17T10:02:58.379Z,12.07
2023-04-17T10:05:29.944Z,10.73
2023-04-17T10:07:57.062Z,12.07
2023-04-17T10:10:31.240Z,11.95
2023-04-17T10:13:00.607Z,12.55
2023-04-17T10:15:27.752Z,12.63
2023-04-17T10:17:56.674Z,10.40
2023-04-17T10:20:23.777Z,10.32
2023-04-17T10:22:55.192Z,11.07
2023-04-17T10:25:26.436Z,11.18
2023-04-17T10:27:59.946Z,10.52
2023-04-17T10:30:49.414Z,9.18
2023-04-17T10:33:16.918Z,8.40
2023-04-17T10:35:43.617Z,9.40
2023-04-17T10:38:11.636Z,8.88
2023-04-17T10:40:39.221Z,6.97
2023-04-17T10:43:19.990Z,7.88
2023-04-17T10:46:14.734Z,7.20
2023-04-17T10:48:51.139Z,7.85
2023-04-17T10:51:24.055Z,6.35
2023-04-17T10:53:54.347Z,6.90
2023-04-17T10:56:46.579Z,7.20
2023-04-17T10:59:16.469Z,6.05
2023-04-17T11:01:50.162Z,5.75
2023-04-17T11:04:24.660Z,6.22
2023-04-17T11:06:52.891Z,4.78
2023-04-17T11:09:24.403Z,6.13
2023-04-17T11:11:51.364Z,5.35
2023-04-17T11:14:22.995Z,5.57
2023-04-17T11:16:51.303Z,5.07
2023-04-17T11:19:20.093Z,6.85
2023-04-17T11:21:48.576Z,6.05
2023-04-17T11:24:23.569Z,6.35
2023-04-17T11:26:50.333Z,4.50
2023-04-17T11:29:18.162Z,8.48
2023-04-17T11:31:45.731Z,5.00
2023-04-17T11:34:13.596Z,5.57
2023-04-17T11:36:40.269Z,4.55
2023-04-17T11:39:08.416Z,6.35
2023-04-17T11:41:38.979Z,5.82
2023-04-17T11:44:09.673Z,8.57
2023-04-17T11:46:36.953Z,6.90
2023-04-17T11:49:07.407Z,7.32
2023-04-17T11:51:34.344Z,6.35
2023-04-17T11:54:01.249Z,7.10
2023-04-17T11:56:31.181Z,8.45
2023-04-17T11:58:59.422Z,6.82
2023-04-17T12:01:27.514Z,5.97
2023-04-17T12:03:56.155Z,5.25
2023-04-17T12:06:24.345Z,7.03
2023-04-17T12:08:53.634Z,7.50
2023-04-17T12:11:26.378Z,6.35
2023-04-17T12:13:53.906Z,8.05
2023-04-17T12:16:20.631Z,9.65
2023-04-17T12:18:47.839Z,8.02
2023-04-17T12:21:14.797Z,9.57
2023-04-17T12:23:41.641Z,8.52
2023-04-17T12:26:08.799Z,8.05
2023-04-17T12:28:36.165Z,9.10
2023-04-17T12:31:04.755Z,9.50
2023-04-17T12:33:32.385Z,8.60
2023-04-17T12:36:03.155Z,10.30
2023-04-17T12:38:32.620Z,8.70
2023-04-17T12:40:59.329Z,10.90
2023-04-17T12:43:26.552Z,6.75
2023-04-17T12:45:53.361Z,9.38
2023-04-17T12:48:20.067Z,6.90
2023-04-17T12:50:46.734Z,6.00
2023-04-17T12:53:14.942Z,7.28
2023-04-17T12:55:44.012Z,7.35
2023-04-17T12:58:12.073Z,5.20
2023-04-17T13:00:40.309Z,6.47
2023-04-17T13:03:07.436Z,7.32
2023-04-17T13:05:34.437Z,6.22
2023-04-17T13:08:01.185Z,6.70
2023-04-17T13:10:28.158Z,5.53
2023-04-17T13:12:54.988Z,6.72
2023-04-17T13:15:21.979Z,4.32
2023-04-17T13:17:49.104Z,5.20
2023-04-17T13:20:15.833Z,5.78
2023-04-17T13:22:42.551Z,7.10
2023-04-17T13:25:09.987Z,7.47
2023-04-17T13:27:37.170Z,6.82
2023-04-17T13:30:04.036Z,6.78
2023-04-17T13:32:30.750Z,5.70
2023-04-17T13:34:58.691Z,4.65
2023-04-17T13:37:26.030Z,5.57
2023-04-17T13:39:52.763Z,6.68
2023-04-17T13:42:19.744Z,10.38
2023-04-17T13:44:46.701Z,4.90
2023-04-17T13:47:13.711Z,6.50
2023-04-17T13:49:40.785Z,5.95
2023-04-17T13:52:07.856Z,6.78
2023-04-17T13:54:34.603Z,6.70
2023-04-17T13:57:01.702Z,5.95
2023-04-17T13:59:28.407Z,8.98
2023-04-17T14:01:55.216Z,4.90
2023-04-17T14:04:22.255Z,6.57
2023-04-17T14:06:51.572Z,4.90
2023-04-17T14:09:18.358Z,6.20
2023-04-17T14:11:45.114Z,5.15
2023-04-17T14:14:13.049Z,4.53
2023-04-17T14:16:43.702Z,5.15
2023-04-17T14:19:13.978Z,5.75
2023-04-17T14:21:41.701Z,5.88
2023-04-17T14:24:08.716Z,6.10
2023-04-17T14:26:36.019Z,5.00
2023-04-17T14:29:02.921Z,6.20
2023-04-17T14:31:29.778Z,5.25
2023-04-17T14:33:56.507Z,8.10
2023-04-17T14:36:23.272Z,5.68
2023-04-17T14:38:51.939Z,4.85
2023-04-17T14:41:18.690Z,6.85
2023-04-17T14:43:45.726Z,6.28
2023-04-17T14:46:12.477Z,5.28
2023-04-17T14:48:54.157Z,4.30
2023-04-17T14:51:27.262Z,4.93
2023-04-17T14:53:54.588Z,5.18
2023-04-17T14:56:24.247Z,5.30
2023-04-17T14:58:52.501Z,5.40
2023-04-17T15:01:21.648Z,4.75
2023-04-17T15:03:48.991Z,5.35
2023-04-17T15:06:16.929Z,5.13
2023-04-17T15:08:43.802Z,4.43
2023-04-17T15:11:10.602Z,4.82
2023-04-17T15:13:37.323Z,5.13
2023-04-17T15:16:04.373Z,5.45
2023-04-17T15:18:31.332Z,4.68
2023-04-17T15:20:58.266Z,5.93
2023-04-17T15:23:26.637Z,5.13
2023-04-17T15:25:55.546Z,6.32
2023-04-17T15:28:22.273Z,4.65
2023-04-17T15:30:49.216Z,4.75
2023-04-17T15:33:16.032Z,4.70
2023-04-17T15:35:42.875Z,4.90
2023-04-17T15:38:09.645Z,3.85
2023-04-17T15:40:36.405Z,4.80
2023-04-17T15:43:03.330Z,5.60
2023-04-17T15:45:30.010Z,5.70
2023-04-17T15:47:57.101Z,5.10
2023-04-17T15:50:24.192Z,4.22
2023-04-17T15:52:51.038Z,4.60
2023-04-17T15:55:17.748Z,4.53
2023-04-17T15:57:44.532Z,4.80
2023-04-17T16:00:11.926Z,5.75
2023-04-17T16:02:38.722Z,5.70
2023-04-17T16:05:05.962Z,6.72
2023-04-17T16:07:32.883Z,11.07
2023-04-17T16:10:00.261Z,9.25
2023-04-17T16:12:28.403Z,5.57
2023-04-17T16:14:55.657Z,8.38
2023-04-17T16:17:22.365Z,5.22
2023-04-17T16:19:50.768Z,3.97
2023-04-17T16:22:18.656Z,3.30
2023-04-17T16:24:45.468Z,4.47
2023-04-17T16:27:12.240Z,3.70
2023-04-17T16:29:39.055Z,3.85
2023-04-17T16:32:05.881Z,3.58
2023-04-17T16:34:32.575Z,3.65
2023-04-17T16:36:59.250Z,4.03
2023-04-17T16:39:26.107Z,4.80
2023-04-17T16:41:52.983Z,4.72
2023-04-17T16:44:19.922Z,4.32
2023-04-17T16:47:05.519Z,4.28
2023-04-17T16:49:33.619Z,3.92
2023-04-17T16:52:00.454Z,3.90
2023-04-17T16:54:27.152Z,3.35
2023-04-17T16:56:53.915Z,4.60
2023-04-17T16:59:20.649Z,3.55
2023-04-17T17:01:49.781Z,4.20
2023-04-17T17:04:16.681Z,4.75
2023-04-17T17:06:43.804Z,4.60
2023-04-17T17:09:10.716Z,5.82
2023-04-17T17:11:37.583Z,3.53
2023-04-17T17:14:04.325Z,3.83
2023-04-17T17:16:31.084Z,3.28
2023-04-17T17:18:57.872Z,4.80
2023-04-17T17:21:24.596Z,8.27
2023-04-17T17:23:51.653Z,4.50
2023-04-17T17:26:18.426Z,4.05
2023-04-17T17:28:51.113Z,2.63
2023-04-17T17:31:18.385Z,3.42
2023-04-17T17:33:50.347Z,3.22
2023-04-17T17:36:17.391Z,3.80
2023-04-17T17:38:44.684Z,6.95
2023-04-17T17:41:11.406Z,9.38
2023-04-17T17:43:38.211Z,6.22
2023-04-17T17:46:05.287Z,15.02
2023-04-17T17:48:32.080Z,5.95
2023-04-17T17:50:58.828Z,5.97
2023-04-17T17:53:26.926Z,7.22
2023-04-17T17:55:55.108Z,4.20
2023-04-17T17:58:22.838Z,2.40
2023-04-17T18:00:52.545Z,2.30
2023-04-17T18:03:19.658Z,2.70
2023-04-17T18:05:47.471Z,2.50
2023-04-17T18:08:14.722Z,2.05
2023-04-17T18:10:41.625Z,3.53
2023-04-17T18:13:08.648Z,2.75
2023-04-17T18:15:36.240Z,2.88
2023-04-17T18:18:03.233Z,2.63
2023-04-17T18:20:30.072Z,4.00
2023-04-17T18:22:58.254Z,2.17
2023-04-17T18:25:25.064Z,2.38
2023-04-17T18:27:51.915Z,2.28
2023-04-17T18:30:18.885Z,3.10
2023-04-17T18:32:45.627Z,4.22
2023-04-17T18:35:12.431Z,2.88
2023-04-17T18:37:39.844Z,4.10
2023-04-17T18:40:08.029Z,2.50
2023-04-17T18:42:34.811Z,3.22
2023-04-17T18:45:01.544Z,3.05
2023-04-17T18:47:28.538Z,3.95
2023-04-17T18:49:55.239Z,4.40
2023-04-17T18:52:21.941Z,3.30
2023-04-17T18:54:48.696Z,3.78
2023-04-17T18:57:15.411Z,4.88
2023-04-17T18:59:43.282Z,5.28
2023-04-17T19:02:10.584Z,4.13
2023-04-17T19:04:37.306Z,3.92
2023-04-17T19:07:04.058Z,6.55
2023-04-17T19:09:30.874Z,7.00
2023-04-17T19:11:58.702Z,4.80
2023-04-17T19:14:25.701Z,4.18
2023-04-17T19:16:53.479Z,4.78
2023-04-17T19:19:20.324Z,3.90
2023-04-17T19:21:47.023Z,5.03
2023-04-17T19:24:13.724Z,4.60
2023-04-17T19:26:40.483Z,4.47
2023-04-17T19:29:07.458Z,4.05
2023-04-17T19:31:34.272Z,5.47
2023-04-17T19:34:01.427Z,5.22
2023-04-17T19:36:28.584Z,5.15
2023-04-17T19:38:59.152Z,4.35
2023-04-17T19:41:26.458Z,6.53
2023-04-17T19:43:54.331Z,5.75
2023-04-17T19:46:22.293Z,6.85
2023-04-17T19:48:49.789Z,5.88
2023-04-17T19:51:16.893Z,6.75
2023-04-17T19:53:44.345Z,7.47
2023-04-17T19:56:12.559Z,7.25
2023-04-17T19:58:40.626Z,8.25
2023-04-17T20:01:07.419Z,8.00
2023-04-17T20:03:35.688Z,8.77
2023-04-17T20:06:03.639Z,10.25
2023-04-17T20:08:30.460Z,9.77
2023-04-17T20:10:57.168Z,10.02
2023-04-17T20:13:23.855Z,10.23
2023-04-17T20:15:50.990Z,11.88
2023-04-17T20:18:17.870Z,13.93
2023-04-17T20:20:44.682Z,12.63
2023-04-17T20:23:11.656Z,13.02
2023-04-17T20:25:38.379Z,12.35
2023-04-17T20:28:05.519Z,12.38
2023-04-17T20:30:32.287Z,13.52
2023-04-17T20:32:59.192Z,11.13
2023-04-17T20:35:26.085Z,12.93
2023-04-17T20:37:53.091Z,15.57
2023-04-17T20:40:19.978Z,14.70
2023-04-17T20:42:46.969Z,13.93
2023-04-17T20:45:13.917Z,16.05
2023-04-17T20:47:55.892Z,13.82
2023-04-17T20:52:49.815Z,13.95
2023-04-17T20:55:18.945Z,14.75
2023-04-17T20:57:45.811Z,15.30
2023-04-17T21:00:12.922Z,14.93
2023-04-17T21:02:39.737Z,14.02
2023-04-17T21:05:07.603Z,13.38
2023-04-17T21:07:34.600Z,14.60
2023-04-17T21:10:01.787Z,16.88
2023-04-17T21:12:28.632Z,17.58
2023-04-17T21:14:56.182Z,16.35
2023-04-17T21:17:22.972Z,16.30
2023-04-17T21:19:49.842Z,13.48
2023-04-17T21:22:16.671Z,17.27
2023-04-17T21:24:43.418Z,16.83
2023-04-17T21:27:10.681Z,14.55
2023-04-17T21:29:37.710Z,16.27
2023-04-17T21:32:04.677Z,14.40
2023-04-17T21:34:31.540Z,16.13
2023-04-17T21:36:59.805Z,13.85
2023-04-17T21:39:26.774Z,16.23
2023-04-17T21:41:53.592Z,15.05
2023-04-17T21:44:20.334Z,16.52
2023-04-17T21:46:47.130Z,18.00
2023-04-17T21:49:13.817Z,17.75
2023-04-17T21:51:41.018Z,17.02
2023-04-17T21:54:09.270Z,15.00
2023-04-17T21:56:36.549Z,16.10
2023-04-17T21:59:03.834Z,18.08
2023-04-17T22:01:30.652Z,17.38
2023-04-17T22:03:57.501Z,15.70
2023-04-17T22:06:24.387Z,14.65
2023-04-17T22:08:51.086Z,16.50
2023-04-17T22:11:17.862Z,16.98
2023-04-17T22:13:45.233Z,16.60
2023-04-17T22:16:12.073Z,16.75
2023-04-17T22:18:38.841Z,16.98
2023-04-17T22:21:06.294Z,15.63
2023-04-17T22:23:33.054Z,19.67
2023-04-17T22:25:59.738Z,18.35
2023-04-17T22:28:30.050Z,19.98
2023-04-17T22:30:57.914Z,16.70
2023-04-17T22:33:24.775Z,18.23
2023-04-17T22:35:51.461Z,16.50
2023-04-17T22:38:19.507Z,18.13
2023-04-17T22:40:46.250Z,15.10
2023-04-17T22:43:12.963Z,15.65
2023-04-17T22:45:39.620Z,16.42
2023-04-17T22:48:06.817Z,17.83
2023-04-17T22:50:33.497Z,15.20
2023-04-17T22:53:00.202Z,15.88
2023-04-17T22:55:26.891Z,15.90
2023-04-17T22:57:53.645Z,16.38
2023-04-17T23:00:21.278Z,17.48
2023-04-17T23:02:48.108Z,17.33
2023-04-17T23:05:15.053Z,16.00
2023-04-17T23:07:41.757Z,17.58
2023-04-17T23:10:09.055Z,19.05
2023-04-17T23:12:35.738Z,15.55
2023-04-17T23:15:02.470Z,21.50
2023-04-17T23:17:29.461Z,17.38
2023-04-17T23:19:57.054Z,15.80
2023-04-17T23:22:23.896Z,15.45
2023-04-17T23:24:50.616Z,14.85
2023-04-17T23:27:17.455Z,16.38
2023-04-17T23:29:44.760Z,16.95
2023-04-17T23:32:11.458Z,15.10
2023-04-17T23:34:38.238Z,15.48
2023-04-17T23:37:05.517Z,13.40
2023-04-17T23:39:32.217Z,17.70
2023-04-17T23:42:00.614Z,14.20
2023-04-17T23:44:27.349Z,15.10
2023-04-17T23:46:54.074Z,15.10
2023-04-17T23:49:21.180Z,16.63
2023-04-17T23:51:47.936Z,16.02
2023-04-17T23:54:15.395Z,14.23
2023-04-17T23:56:43.650Z,15.57
2023-04-17T23:59:10.477Z,18.05
